Latest Weather Observations for Combienbar

IDV60801

Issued at 6:35 pm EST Wednesday 27 August 2014 (issued every 30 minutes, with the page automatically refreshed every 10 minutes)

About weather observations | Map of weather stations | Latest weather observations for VIC | Other Formats
Station Details ID: 084143 Name: COMBIENBAR AWS Lat: -37.34 Lon: 149.02 Height: 640.0 m
Data from the previous 72 hours. | See also: Recent months at Combienbar
Date/Time
EST
Temp
°C
App
Temp
°C
Dew
Point
Rel
Hum
%
Delta-T
°C
Wind Press
QNH
hPa
Press
MSL
hPa
Rain
since 9 am
mm
Dir
 
Spd
km/h
Gust
km/h
Spd
kts
Gust
kts
27/06:30pm 8.2 6.7 4.8 79 1.6 NNE 2 6 1 3 1028.7 1029.1 0.0
27/06:00pm 8.6 7.1 4.8 77 1.7 N 2 4 1 2 1028.5 1028.9 0.0
27/05:30pm 9.1 7.3 5.5 78 1.7 NNE 4 6 2 3 1028.2 1028.6 0.0
27/05:00pm 9.9 8.9 5.7 75 2.0 CALM 0 0 0 0 1028.2 1028.6 0.0
27/04:30pm 12.3 11.4 5.9 65 3.1 CALM 0 0 0 0 1028.0 1028.4 0.0
27/04:00pm 12.9 11.6 6.0 63 3.4 NNE 2 4 1 2 1027.9 1028.2 0.0
27/03:30pm 14.1 13.2 6.2 59 3.9 CALM 0 4 0 2 1027.9 1028.2 0.0
27/03:00pm 13.7 11.8 2.9 48 4.9 NE 2 6 1 3 1027.9 1028.2 0.0
27/02:30pm 15.3 14.2 5.0 50 5.0 CALM 0 2 0 1 1028.0 1028.4 0.0
27/02:00pm 14.2 12.5 3.9 50 4.8 NNE 2 6 1 3 1028.1 1028.5 0.0
27/01:30pm 14.4 12.8 4.7 52 4.7 NNE 2 6 1 3 1028.2 1028.6 0.0
27/01:00pm 13.8 12.4 5.7 58 3.9 NNE 2 6 1 3 1028.3 1028.7 0.0
27/12:30pm 12.7 10.8 5.1 60 3.6 NNE 4 7 2 4 1028.5 1028.9 0.0
27/12:00pm 13.8 12.5 5.9 59 3.9 NNE 2 6 1 3 1028.9 1029.3 0.0
27/11:30am 13.1 11.7 5.5 60 3.7 NNE 2 9 1 5 1029.3 1029.8 0.0
27/11:00am 12.5 10.9 6.3 66 3.0 NNE 4 7 2 4 1029.6 1030.0 0.0
27/10:30am 12.0 10.4 6.5 69 2.7 NNE 4 6 2 3 1029.6 1030.0 0.0
27/10:00am 11.2 9.3 6.5 73 2.3 NNE 6 13 3 7 1029.6 1030.0 0.0
27/09:30am 12.5 11.1 7.2 70 2.7 NNE 4 9 2 5 1029.6 1030.0 0.0
27/09:00am 10.9 9.4 7.0 77 1.9 NNE 4 7 2 4 1029.6 1030.0 1.2
27/08:30am 9.2 7.5 5.8 79 1.6 NNE 4 9 2 5 1029.6 1030.0 1.2
27/08:00am 7.1 5.6 4.9 86 1.0 NNE 2 4 1 2 1029.2 1029.7 1.2
27/07:30am 6.9 5.6 3.9 81 1.3 CALM 0 4 0 2 1029.0 1029.4 1.2
27/07:00am 6.3 4.9 3.6 83 1.2 CALM 0 0 0 0 1028.5 1028.9 1.2
27/06:30am 6.0 4.6 3.5 84 1.1 CALM 0 4 0 2 1028.3 1028.7 1.2
27/06:00am 6.1 4.3 3.6 84 1.1 SE 2 6 1 3 1028.0 1028.4 1.2
27/05:30am 6.1 4.7 3.6 84 1.1 CALM 0 6 0 3 1028.0 1028.4 1.2
27/05:00am 6.5 5.2 4.0 84 1.1 CALM 0 2 0 1 1028.1 1028.5 1.2
27/04:30am 6.4 5.1 4.1 85 1.0 CALM 0 4 0 2 1028.1 1028.5 1.2
27/04:00am 6.7 5.4 4.0 83 1.2 CALM 0 0 0 0 1028.0 1028.4 1.2
27/03:30am 6.0 4.3 4.0 87 0.9 NNE 2 4 1 2 1028.2 1028.6 1.2
27/03:00am 6.2 5.0 4.4 88 0.8 CALM 0 0 0 0 1028.4 1028.8 1.2
27/02:30am 6.6 5.4 4.6 87 0.9 CALM 0 6 0 3 1028.5 1028.9 1.2
27/02:00am 6.7 5.6 5.3 91 0.6 CALM 0 7 0 4 1028.4 1028.8 1.2
27/01:30am 6.7 5.7 5.7 93 0.5 CALM 0 0 0 0 1028.8 1029.2 1.2
27/01:00am 7.1 5.4 5.9 92 0.6 NNE 4 7 2 4 1028.9 1029.3 1.2
27/12:30am 7.3 6.0 6.1 92 0.6 NNE 2 7 1 4 1029.0 1029.4 1.2
27/12:00am 7.3 5.6 6.1 92 0.6 NNE 4 7 2 4 1029.0 1029.4 1.2
 
Date/Time
EST
Temp
°C
App
Temp
°C
Dew
Point
Rel
Hum
%
Delta-T
°C
Wind Press
QNH
hPa
Press
MSL
hPa
Rain
since 9 am
mm
Dir
 
Spd
km/h
Gust
km/h
Spd
kts
Gust
kts
26/11:30pm 7.5 6.7 6.4 93 0.5 CALM 0 0 0 0 1029.1 1029.5 1.2
26/11:00pm 7.6 5.7 6.7 94 0.4 NNE 6 7 3 4 1029.1 1029.5 1.2
26/10:30pm 7.7 5.9 7.0 95 0.3 NNE 6 9 3 5 1029.2 1029.7 1.2
26/10:00pm 7.9 6.4 7.0 94 0.4 NNE 4 6 2 3 1029.3 1029.8 1.2
26/09:30pm 8.3 7.0 7.5 95 0.4 NNE 4 6 2 3 1029.6 1030.0 1.0
26/09:00pm 8.2 6.8 7.3 94 0.4 NNE 4 11 2 6 1029.6 1030.0 1.0
26/08:30pm 8.2 6.4 7.3 94 0.4 NNE 6 7 3 4 1029.4 1029.9 1.0
26/08:00pm 8.3 6.9 7.4 94 0.4 NNE 4 6 2 3 1029.4 1029.9 1.0
26/07:30pm 8.2 7.1 7.1 93 0.5 N 2 4 1 2 1029.3 1029.8 1.0
26/07:00pm 8.1 6.6 6.9 92 0.6 NNE 4 7 2 4 1029.1 1029.5 1.0
26/06:30pm 9.0 7.4 7.8 92 0.6 NNE 6 9 3 5 1029.0 1029.4 1.0
26/06:00pm 9.3 8.0 7.6 89 0.8 NNE 4 13 2 7 1028.7 1029.1 1.0
26/05:30pm 9.4 8.0 7.3 87 1.0 NNE 4 11 2 6 1028.3 1028.7 1.0
26/05:00pm 10.6 9.4 8.2 85 1.2 NNE 4 9 2 5 1027.9 1028.2 1.0
26/04:30pm 11.3 9.7 8.2 81 1.6 NNE 6 13 3 7 1027.5 1027.9 1.0
26/04:00pm 11.7 10.1 8.2 79 1.8 NNE 6 13 3 7 1027.3 1027.7 1.0
26/03:30pm 15.1 15.2 10.1 72 2.7 CALM 0 4 0 2 1027.4 1027.8 1.0
26/03:00pm 14.2 13.9 10.2 77 2.1 NNE 2 4 1 2 1027.5 1027.9 1.0
26/02:30pm 14.4 13.6 9.6 73 2.6 NNE 4 6 2 3 1027.4 1027.8 1.0
26/02:00pm 12.5 11.7 9.7 83 1.5 NNE 4 6 2 3 1027.7 1028.1 1.0
26/01:30pm 12.8 11.9 9.1 78 1.9 NE 4 11 2 6 1028.0 1028.4 1.0
26/01:00pm 11.1 10.4 9.9 92 0.6 NE 4 11 2 6 1028.1 1028.5 1.0
26/12:30pm 11.3 10.0 9.2 87 1.1 E 6 11 3 6 1028.4 1028.8 1.0
26/12:00pm 14.9 13.8 9.9 72 2.7 NNE 6 7 3 4 1028.6 1029.0 0.0
26/11:30am 11.3 10.6 8.5 83 1.4 ENE 2 6 1 3 1028.9 1029.3 0.0
26/11:00am 12.2 11.7 9.4 83 1.5 NNE 2 6 1 3 1029.2 1029.7 0.0
26/10:30am 12.7 12.3 9.9 83 1.5 NNE 2 7 1 4 1029.4 1029.9 0.0
26/10:00am 11.8 11.7 10.9 94 0.5 NNE 2 7 1 4 1029.4 1029.9 0.0
26/09:30am 11.3 10.9 11.0 98 0.2 NNE 4 6 2 3 1029.7 1030.1 0.0
26/09:00am 9.5 8.6 9.2 98 0.2 NNE 4 7 2 4 1029.6 1030.0 5.8
26/08:30am 9.2 8.2 8.9 98 0.2 NNE 4 7 2 4 1029.4 1029.9 5.6
26/08:00am 8.7 8.3 8.4 98 0.1 CALM 0 0 0 0 1029.1 1029.5 5.6
26/07:30am 8.7 8.3 8.4 98 0.2 CALM 0 0 0 0 1028.8 1029.2 5.6
26/07:00am 7.7 6.7 7.4 98 0.1 NNE 2 4 1 2 1028.6 1029.0 5.6
26/06:30am 7.8 6.8 7.5 98 0.1 NNE 2 4 1 2 1028.4 1028.8 5.6
26/06:00am 7.9 7.0 7.6 98 0.1 N 2 4 1 2 1028.3 1028.7 5.6
26/05:30am 8.3 7.1 8.0 98 0.1 NNE 4 11 2 6 1028.2 1028.6 5.4
26/05:00am 8.3 7.8 8.0 98 0.1 CALM 0 0 0 0 1027.9 1028.2 4.8
26/04:30am 8.2 7.7 7.9 98 0.1 CALM 0 0 0 0 1027.6 1028.0 3.8
26/04:00am 8.1 7.6 7.8 98 0.1 CALM 0 0 0 0 1027.6 1028.0 3.6
26/03:30am 8.1 7.6 7.8 98 0.1 CALM 0 0 0 0 1027.4 1027.8 3.6
26/03:00am 8.1 7.6 7.8 98 0.1 CALM 0 0 0 0 1027.5 1027.9 3.2
26/02:30am 8.0 7.5 7.7 98 0.1 CALM 0 0 0 0 1027.7 1028.1 3.2
26/02:00am 8.0 7.5 7.7 98 0.1 CALM 0 0 0 0 1027.9 1028.2 3.2
26/01:30am 8.0 7.5 7.7 98 0.1 CALM 0 0 0 0 1027.9 1028.2 3.2
26/01:00am 8.0 7.5 7.7 98 0.1 CALM 0 0 0 0 1028.1 1028.5 3.0
26/12:30am 8.0 7.5 7.7 98 0.1 CALM 0 0 0 0 1028.1 1028.5 3.0
26/12:00am 8.0 7.4 7.6 97 0.2 CALM 0 0 0 0 1028.2 1028.6 2.8
 
Date/Time
EST
Temp
°C
App
Temp
°C
Dew
Point
Rel
Hum
%
Delta-T
°C
Wind Press
QNH
hPa
Press
MSL
hPa
Rain
since 9 am
mm
Dir
 
Spd
km/h
Gust
km/h
Spd
kts
Gust
kts
25/11:30pm 8.2 7.7 7.8 97 0.2 CALM 0 4 0 2 1028.2 1028.6 1.6
25/11:00pm 8.2 7.7 7.8 97 0.2 CALM 0 0 0 0 1028.0 1028.4 1.4
25/10:30pm 8.0 7.4 7.6 97 0.2 CALM 0 0 0 0 1028.2 1028.6 1.2
25/10:00pm 8.1 7.6 7.7 97 0.2 CALM 0 0 0 0 1028.1 1028.5 1.2
25/09:30pm 8.3 7.8 7.9 97 0.2 CALM 0 0 0 0 1028.2 1028.6 1.2
25/09:00pm 8.4 7.9 8.0 97 0.2 CALM 0 0 0 0 1028.3 1028.7 1.2
25/08:30pm 8.3 7.8 7.9 97 0.2 CALM 0 0 0 0 1028.2 1028.6 1.2
25/08:00pm 8.4 7.9 8.0 97 0.2 CALM 0 0 0 0 1028.0 1028.4 1.2
25/07:30pm 8.4 7.9 8.0 97 0.2 CALM 0 0 0 0 1027.9 1028.2 1.2
25/07:00pm 8.4 7.9 8.0 97 0.2 CALM 0 0 0 0 1027.6 1028.0 1.2
25/06:30pm 8.5 8.1 8.1 97 0.2 CALM 0 0 0 0 1027.5 1027.9 1.2
25/06:00pm 8.6 8.2 8.2 97 0.2 CALM 0 0 0 0 1027.0 1027.4 1.2
25/05:30pm 8.7 7.9 8.3 97 0.2 SSW 2 4 1 2 1026.6 1027.0 1.2
25/05:00pm 8.8 8.4 8.2 96 0.3 CALM 0 2 0 1 1026.5 1026.8 0.8
25/04:30pm 8.9 8.5 8.3 96 0.3 CALM 0 0 0 0 1026.2 1026.5 0.8
25/04:00pm 9.0 8.6 8.4 96 0.3 CALM 0 0 0 0 1026.0 1026.4 0.8
25/03:30pm 9.4 8.7 8.6 95 0.4 SSW 2 6 1 3 1025.9 1026.3 0.8
25/03:00pm 10.9 11.0 10.3 96 0.3 CALM 0 0 0 0 1025.7 1026.1 0.8
25/02:30pm 9.6 9.2 8.2 91 0.7 CALM 0 0 0 0 1025.9 1026.3 0.4
25/02:00pm 10.8 10.3 7.7 81 1.5 CALM 0 2 0 1 1025.8 1026.2 0.0
25/01:30pm 10.5 9.9 7.4 81 1.5 CALM 0 0 0 0 1026.0 1026.4 0.0
25/01:00pm 11.2 10.7 7.9 80 1.7 CALM 0 0 0 0 1026.2 1026.5 0.0
25/12:30pm 11.0 10.4 7.3 78 1.8 CALM 0 2 0 1 1026.3 1026.6 0.0
25/12:00pm 11.4 10.8 7.5 77 1.9 CALM 0 2 0 1 1026.5 1026.8 0.0
25/11:30am 10.0 9.3 7.1 82 1.4 CALM 0 0 0 0 1026.7 1027.1 0.0
25/11:00am 10.4 9.8 7.5 82 1.4 CALM 0 2 0 1 1026.7 1027.1 0.0
25/10:30am 10.4 9.6 6.7 78 1.8 CALM 0 6 0 3 1026.6 1027.0 0.0
25/10:00am 9.1 8.5 7.2 88 0.9 CALM 0 0 0 0 1026.6 1027.0 0.0
25/09:30am 8.4 7.6 8.0 97 0.2 ENE 2 6 1 3 1026.7 1027.1 0.0
25/09:00am 7.5 6.8 7.1 97 0.2 CALM 0 0 0 0 1026.6 1027.0 1.4
25/08:30am 7.0 6.2 6.6 97 0.2 CALM 0 0 0 0 1026.7 1027.1 1.4
25/08:00am 6.7 5.9 6.3 97 0.2 CALM 0 0 0 0 1026.6 1027.0 1.4
25/07:30am 6.7 5.9 6.3 97 0.2 CALM 0 2 0 1 1026.3 1026.6 1.4
25/07:00am 6.7 5.9 6.3 97 0.2 CALM 0 0 0 0 1025.9 1026.3 1.4
25/06:30am 6.8 6.0 6.4 97 0.2 CALM 0 0 0 0 1025.6 1026.0 1.4
25/06:00am 7.3 6.6 6.9 97 0.2 CALM 0 0 0 0 1025.4 1025.8 1.4
25/05:30am 7.4 6.7 7.0 97 0.2 CALM 0 0 0 0 1025.2 1025.5 1.4
25/05:00am 7.3 6.6 6.9 97 0.2 CALM 0 0 0 0 1025.0 1025.3 1.4
25/04:30am 7.6 7.0 7.2 97 0.2 CALM 0 0 0 0 1024.9 1025.2 1.4
25/04:00am 7.6 7.0 7.2 97 0.2 CALM 0 0 0 0 1024.9 1025.2 1.4
25/03:30am 7.6 7.0 7.2 97 0.2 CALM 0 0 0 0 1024.9 1025.2 1.2
25/03:00am 7.6 7.0 7.2 97 0.2 CALM 0 0 0 0 1024.8 1025.1 1.2
25/02:30am 7.7 7.1 7.3 97 0.2 CALM 0 0 0 0 1025.0 1025.3 1.2
25/02:00am 7.7 7.1 7.3 97 0.2 CALM 0 0 0 0 1025.2 1025.5 1.2
25/01:30am 7.7 7.1 7.3 97 0.2 CALM 0 0 0 0 1025.4 1025.8 1.2
25/01:00am 7.8 7.2 7.2 96 0.3 CALM 0 0 0 0 1025.5 1025.9 1.2
25/12:30am 8.3 7.6 6.8 90 0.7 CALM 0 0 0 0 1025.5 1025.9 1.2
25/12:00am 8.1 7.4 7.0 93 0.5 CALM 0 4 0 2 1025.5 1025.9 1.2
 
Date/Time
EST
Temp
°C
App
Temp
°C
Dew
Point
Rel
Hum
%
Delta-T
°C
Wind Press
QNH
hPa
Press
MSL
hPa
Rain
since 9 am
mm
Dir
 
Spd
km/h
Gust
km/h
Spd
kts
Gust
kts
24/11:30pm 8.3 7.6 6.8 90 0.7 CALM 0 0 0 0 1025.5 1025.9 1.2
24/11:00pm 8.0 7.3 7.1 94 0.4 CALM 0 2 0 1 1025.4 1025.8 1.2
24/10:30pm 8.3 7.6 7.1 92 0.6 CALM 0 0 0 0 1025.9 1026.3 1.2
24/10:00pm 8.2 7.6 7.6 96 0.3 CALM 0 6 0 3 1026.0 1026.4 1.2
24/09:30pm 8.1 7.5 7.5 96 0.3 CALM 0 0 0 0 1026.2 1026.5 1.0
24/09:00pm 8.3 7.8 7.7 96 0.3 CALM 0 0 0 0 1026.3 1026.6 1.0
24/08:30pm 8.3 7.8 7.7 96 0.3 CALM 0 0 0 0 1026.4 1026.7 1.0
24/08:00pm 8.3 7.7 7.5 95 0.4 CALM 0 0 0 0 1026.6 1027.0 1.0
24/07:30pm 8.4 7.8 7.2 92 0.6 CALM 0 0 0 0 1026.6 1027.0 1.0
24/07:00pm 8.6 8.0 7.2 91 0.7 CALM 0 2 0 1 1026.2 1026.5 1.0

Other Formats:

Comma delimited format used in spreadsheet applications
http://www.bom.gov.au/fwo/IDV60801/IDV60801.94914.axf

JavaScript Object Notation format (JSON) in row-major order
http://www.bom.gov.au/fwo/IDV60801/IDV60801.94914.json